Time;durP1;ratioP1;P1;durP2;ratioP2;P2;SDS_P1;SDS_P2;PMS_P1;PMS_P2;Temp;Humidity;BMP_temperature;BMP_pressure;BME280_temperature;BME280_humidity;BME280_pressure;Samples;Min_cycle;Max_cycle;Signal;HPM_P1;HPM_P2
2022/03/30 00:01:02;;;;;;;;;;;20.80;35.90;;;;;;5076491;28;20380;-60
2022/03/30 00:03:27;;;;;;;;;;;20.80;36.00;;;;;;5094399;28;20287;-60
2022/03/30 00:05:53;;;;;;;;;;;20.80;36.00;;;;;;5063923;28;19913;-60
2022/03/30 00:08:18;;;;;;;;;;;20.80;36.00;;;;;;5049111;28;19958;-60
2022/03/30 00:10:44;;;;;;;;;;;20.80;36.00;;;;;;5074328;28;19908;-60
2022/03/30 00:13:10;;;;;;;;;;;20.70;36.00;;;;;;5058893;28;19909;-60
2022/03/30 00:15:35;;;;;;;;;;;20.70;36.00;;;;;;5053318;28;19913;-60
2022/03/30 00:18:00;;;;;;;;;;;20.70;36.10;;;;;;5036076;28;20019;-60
2022/03/30 00:20:26;;;;;;;;;;;20.70;36.00;;;;;;5048487;28;20032;-60
2022/03/30 00:22:51;;;;;;;;;;;20.70;36.00;;;;;;5038534;28;19916;-60
2022/03/30 00:25:17;;;;;;;;;;;20.70;36.20;;;;;;5039354;28;20364;-60
2022/03/30 00:27:43;;;;;;;;;;;20.60;36.10;;;;;;5039632;28;19908;-60
2022/03/30 00:30:09;;;;;;;;;;;20.60;36.20;;;;;;5039517;28;19915;-60
2022/03/30 00:32:35;;;;;;;;;;;20.50;36.20;;;;;;5039554;28;20651;-60
2022/03/30 00:35:00;;;;;;;;;;;20.50;36.20;;;;;;5056085;28;19917;-60
2022/03/30 00:37:26;;;;;;;;;;;20.50;36.30;;;;;;5052719;28;19915;-60
2022/03/30 00:39:53;;;;;;;;;;;20.50;36.30;;;;;;5036910;28;20016;-60
2022/03/30 00:42:19;;;;;;;;;;;20.50;36.30;;;;;;5056130;28;19948;-60
2022/03/30 00:44:46;;;;;;;;;;;20.50;36.40;;;;;;5055963;28;19965;-60
2022/03/30 00:47:13;;;;;;;;;;;20.50;36.30;;;;;;5056347;28;19991;-60
2022/03/30 00:49:38;;;;;;;;;;;20.50;36.30;;;;;;5056256;28;19912;-60
2022/03/30 00:52:04;;;;;;;;;;;20.50;36.40;;;;;;5039335;28;19977;-60
2022/03/30 00:54:29;;;;;;;;;;;20.50;36.40;;;;;;5054791;28;19933;-60
2022/03/30 00:56:55;;;;;;;;;;;20.50;36.40;;;;;;5059531;28;19916;-60
2022/03/30 00:59:20;;;;;;;;;;;20.40;36.40;;;;;;5040936;28;19908;-60
2022/03/30 01:01:46;;;;;;;;;;;20.40;36.30;;;;;;5057906;28;19923;-60
2022/03/30 01:04:11;;;;;;;;;;;20.50;36.50;;;;;;5059085;28;20002;-60
2022/03/30 01:06:37;;;;;;;;;;;20.40;36.30;;;;;;5076472;28;19939;-60
2022/03/30 01:09:02;;;;;;;;;;;20.40;36.30;;;;;;5075880;28;20352;-60
2022/03/30 01:11:28;;;;;;;;;;;20.50;36.30;;;;;;5040171;28;19909;-60
2022/03/30 01:13:53;;;;;;;;;;;20.50;36.30;;;;;;5024092;28;19913;-60
2022/03/30 01:16:20;;;;;;;;;;;20.50;36.20;;;;;;5058765;28;19912;-60
2022/03/30 01:18:46;;;;;;;;;;;20.60;36.80;;;;;;5059429;28;19915;-60
2022/03/30 01:21:11;;;;;;;;;;;20.70;36.30;;;;;;5057389;28;19928;-60
2022/03/30 01:23:37;;;;;;;;;;;20.70;36.30;;;;;;5075259;28;19915;-60
2022/03/30 01:26:05;;;;;;;;;;;20.80;36.30;;;;;;5059306;28;19908;-60
2022/03/30 01:28:34;;;;;;;;;;;20.80;36.20;;;;;;5056660;28;19916;-60
2022/03/30 01:33:44;;;;;;;;;;;21.10;35.90;;;;;;5061464;28;20271;-60
2022/03/30 01:36:10;;;;;;;;;;;21.30;35.80;;;;;;5058408;28;19928;-60
2022/03/30 01:38:35;;;;;;;;;;;21.40;35.50;;;;;;5058337;28;20007;-60
2022/03/30 01:41:01;;;;;;;;;;;21.50;35.30;;;;;;5056623;28;19920;-60
2022/03/30 01:43:28;;;;;;;;;;;21.60;35.10;;;;;;5057995;28;20299;-60
2022/03/30 01:45:54;;;;;;;;;;;21.70;34.90;;;;;;5042045;28;19915;-60
2022/03/30 01:48:19;;;;;;;;;;;21.70;34.90;;;;;;5058553;28;19994;-60
2022/03/30 01:50:44;;;;;;;;;;;21.90;34.90;;;;;;5076576;28;19919;-60
2022/03/30 01:53:10;;;;;;;;;;;21.90;34.80;;;;;;5057780;28;19999;-60
2022/03/30 01:55:35;;;;;;;;;;;21.90;34.70;;;;;;5041877;28;19916;-60
2022/03/30 01:58:01;;;;;;;;;;;22.00;34.60;;;;;;5058602;28;20406;-60
2022/03/30 02:00:27;;;;;;;;;;;22.00;34.50;;;;;;5038714;28;19917;-60
2022/03/30 02:02:52;;;;;;;;;;;22.00;34.40;;;;;;5038526;28;20287;-60
2022/03/30 02:05:18;;;;;;;;;;;22.10;35.10;;;;;;5060812;28;19909;-59
2022/03/30 02:07:44;;;;;;;;;;;22.10;34.40;;;;;;5057573;28;19962;-60
2022/03/30 02:10:09;;;;;;;;;;;22.00;34.20;;;;;;5061986;28;20363;-60
2022/03/30 02:12:35;;;;;;;;;;;22.00;34.10;;;;;;5068195;28;20383;-61
2022/03/30 02:15:01;;;;;;;;;;;22.00;34.10;;;;;;5058287;28;19942;-60
2022/03/30 02:17:27;;;;;;;;;;;22.00;34.10;;;;;;5058930;28;19913;-60
2022/03/30 02:19:53;;;;;;;;;;;22.00;34.10;;;;;;5054997;28;19909;-60
2022/03/30 02:22:19;;;;;;;;;;;21.90;34.10;;;;;;5043844;28;19913;-60
2022/03/30 02:24:44;;;;;;;;;;;21.90;34.20;;;;;;5057110;28;19962;-60
2022/03/30 02:27:10;;;;;;;;;;;21.90;34.30;;;;;;5051721;28;19916;-60
2022/03/30 02:29:36;;;;;;;;;;;21.80;34.30;;;;;;5048434;28;19916;-60
2022/03/30 02:32:02;;;;;;;;;;;21.80;34.50;;;;;;5071711;28;20003;-60
2022/03/30 02:34:27;;;;;;;;;;;21.70;34.50;;;;;;5042171;28;19909;-60
2022/03/30 02:36:52;;;;;;;;;;;21.70;34.60;;;;;;5055091;28;19912;-60
2022/03/30 02:39:18;;;;;;;;;;;21.70;34.80;;;;;;5042497;28;19914;-60
2022/03/30 02:41:44;;;;;;;;;;;21.60;34.80;;;;;;5041505;28;19919;-60
2022/03/30 02:44:09;;;;;;;;;;;21.60;34.80;;;;;;5040717;28;19909;-60
2022/03/30 02:46:35;;;;;;;;;;;21.50;34.70;;;;;;5057464;28;20368;-60
2022/03/30 02:49:00;;;;;;;;;;;21.50;34.70;;;;;;5054097;28;20304;-60
2022/03/30 02:51:27;;;;;;;;;;;21.40;34.90;;;;;;5021361;28;19909;-60
2022/03/30 02:53:53;;;;;;;;;;;21.40;35.10;;;;;;5037665;28;19909;-60
2022/03/30 02:56:19;;;;;;;;;;;21.40;35.10;;;;;;5039909;28;19957;-60
2022/03/30 02:58:44;;;;;;;;;;;21.40;35.20;;;;;;5057557;28;20430;-60
2022/03/30 03:01:10;;;;;;;;;;;21.30;35.20;;;;;;5057934;28;20348;-60
2022/03/30 03:03:35;;;;;;;;;;;21.30;35.20;;;;;;5053208;28;20387;-60
2022/03/30 03:06:01;;;;;;;;;;;21.30;35.30;;;;;;5037395;28;20008;-60
2022/03/30 03:08:26;;;;;;;;;;;21.20;35.30;;;;;;5036673;28;19909;-60
2022/03/30 03:10:52;;;;;;;;;;;21.20;35.20;;;;;;5037933;28;19925;-60
2022/03/30 03:13:17;;;;;;;;;;;21.20;35.40;;;;;;5041446;28;19912;-60
2022/03/30 03:15:43;;;;;;;;;;;21.20;35.50;;;;;;5039311;28;19916;-60
2022/03/30 03:18:09;;;;;;;;;;;21.10;35.50;;;;;;5059999;28;19945;-60
2022/03/30 03:20:34;;;;;;;;;;;21.10;36.30;;;;;;5060869;28;20424;-60
2022/03/30 03:23:03;;;;;;;;;;;21.10;36.40;;;;;;5040085;28;19921;-60
2022/03/30 03:25:29;;;;;;;;;;;21.10;35.70;;;;;;5057191;28;20391;-60
2022/03/30 03:27:55;;;;;;;;;;;21.10;35.50;;;;;;5036834;28;19909;-60
2022/03/30 03:30:21;;;;;;;;;;;21.20;35.50;;;;;;5059969;28;19988;-60
2022/03/30 03:32:46;;;;;;;;;;;21.20;35.50;;;;;;5059779;28;19909;-60
2022/03/30 03:35:13;;;;;;;;;;;21.20;35.40;;;;;;5060938;28;19999;-60
2022/03/30 03:37:39;;;;;;;;;;;21.30;35.30;;;;;;5057050;28;19909;-60
2022/03/30 03:40:05;;;;;;;;;;;21.30;35.20;;;;;;5056577;28;19958;-60
2022/03/30 03:42:31;;;;;;;;;;;21.30;35.20;;;;;;5056896;28;19913;-60
2022/03/30 03:44:57;;;;;;;;;;;21.30;34.90;;;;;;5074831;28;20346;-60
2022/03/30 03:47:22;;;;;;;;;;;21.30;34.80;;;;;;5053402;28;19909;-60
2022/03/30 03:49:47;;;;;;;;;;;21.30;34.80;;;;;;5052655;28;19909;-60
2022/03/30 03:52:13;;;;;;;;;;;21.30;34.80;;;;;;5066858;28;19962;-60
2022/03/30 03:54:38;;;;;;;;;;;21.30;34.90;;;;;;5056140;28;19919;-60
2022/03/30 03:57:04;;;;;;;;;;;21.30;35.10;;;;;;5057173;28;19908;-60
2022/03/30 03:59:29;;;;;;;;;;;21.30;35.10;;;;;;5072435;28;19951;-60
2022/03/30 04:01:55;;;;;;;;;;;21.30;35.20;;;;;;5039950;28;19960;-60
2022/03/30 04:04:20;;;;;;;;;;;21.20;35.20;;;;;;5036429;28;19908;-60
2022/03/30 04:06:46;;;;;;;;;;;21.20;35.30;;;;;;5049437;28;20498;-60
2022/03/30 04:09:11;;;;;;;;;;;21.20;35.30;;;;;;5067934;28;20657;-60
2022/03/30 04:11:37;;;;;;;;;;;21.20;35.30;;;;;;5038026;28;19917;-60
2022/03/30 04:14:02;;;;;;;;;;;21.20;35.30;;;;;;5036390;28;19909;-60
2022/03/30 04:16:28;;;;;;;;;;;21.20;35.30;;;;;;5050234;28;19954;-60
2022/03/30 04:18:53;;;;;;;;;;;21.10;35.30;;;;;;5052715;28;20300;-60
2022/03/30 04:21:19;;;;;;;;;;;21.10;35.30;;;;;;5040768;28;19967;-60
2022/03/30 04:23:44;;;;;;;;;;;21.10;35.30;;;;;;5051662;28;19957;-60
2022/03/30 04:26:10;;;;;;;;;;;21.10;35.30;;;;;;5023941;28;19957;-60
2022/03/30 04:28:40;;;;;;;;;;;21.10;35.30;;;;;;5035010;28;20266;-60
2022/03/30 04:31:07;;;;;;;;;;;21.10;35.50;;;;;;5037360;28;20409;-60
2022/03/30 04:33:32;;;;;;;;;;;21.10;35.40;;;;;;5036388;28;19909;-60
2022/03/30 04:35:58;;;;;;;;;;;21.10;35.40;;;;;;5018195;28;19916;-60
2022/03/30 04:38:23;;;;;;;;;;;21.00;35.50;;;;;;5019342;28;19916;-60
2022/03/30 04:40:48;;;;;;;;;;;21.00;35.60;;;;;;5051749;28;19915;-60
2022/03/30 04:43:14;;;;;;;;;;;20.90;35.60;;;;;;5052976;28;19909;-60
2022/03/30 04:45:39;;;;;;;;;;;20.90;35.70;;;;;;5016937;28;19920;-60
2022/03/30 04:48:05;;;;;;;;;;;20.90;35.60;;;;;;5026910;28;20467;-60
2022/03/30 04:50:30;;;;;;;;;;;21.00;35.50;;;;;;5033154;28;19917;-60
2022/03/30 04:52:56;;;;;;;;;;;21.10;35.30;;;;;;5031600;28;19921;-60
2022/03/30 04:55:22;;;;;;;;;;;21.10;35.00;;;;;;5030818;28;19917;-60
2022/03/30 04:57:47;;;;;;;;;;;21.20;35.00;;;;;;5026822;28;19913;-60
2022/03/30 05:00:13;;;;;;;;;;;21.20;34.80;;;;;;5031741;28;20296;-60
2022/03/30 05:02:39;;;;;;;;;;;21.30;34.70;;;;;;4999045;28;19967;-61
2022/03/30 05:05:05;;;;;;;;;;;21.30;34.50;;;;;;5028911;28;19912;-60
2022/03/30 05:07:31;;;;;;;;;;;21.30;34.50;;;;;;5034749;28;19935;-60
2022/03/30 05:09:57;;;;;;;;;;;21.30;34.50;;;;;;5034963;28;19909;-60
2022/03/30 05:12:23;;;;;;;;;;;21.30;34.60;;;;;;5053477;28;19916;-60
2022/03/30 05:14:49;;;;;;;;;;;21.30;34.50;;;;;;5046693;28;19909;-60
2022/03/30 05:17:15;;;;;;;;;;;21.30;34.60;;;;;;5032053;28;19981;-60
2022/03/30 05:19:40;;;;;;;;;;;21.30;34.50;;;;;;5018151;28;20028;-60
2022/03/30 05:22:06;;;;;;;;;;;21.30;34.50;;;;;;5072661;28;19916;-60
2022/03/30 05:24:31;;;;;;;;;;;21.30;34.50;;;;;;5071957;28;19912;-60
2022/03/30 05:26:57;;;;;;;;;;;21.30;34.50;;;;;;5072895;28;19915;-61
2022/03/30 05:29:22;;;;;;;;;;;21.30;34.50;;;;;;5085378;28;19912;-60
2022/03/30 05:31:48;;;;;;;;;;;21.20;34.50;;;;;;5068958;28;20675;-59
2022/03/30 05:34:13;;;;;;;;;;;21.20;34.60;;;;;;5066151;28;19916;-60
2022/03/30 05:36:39;;;;;;;;;;;21.20;34.80;;;;;;5052954;28;20047;-61
2022/03/30 05:39:04;;;;;;;;;;;21.20;34.80;;;;;;5047687;28;19971;-60
2022/03/30 05:41:30;;;;;;;;;;;21.20;34.90;;;;;;5041636;28;19916;-60
2022/03/30 05:43:56;;;;;;;;;;;21.20;34.90;;;;;;5057962;28;19988;-60
2022/03/30 05:46:21;;;;;;;;;;;21.10;35.00;;;;;;5058520;28;19912;-60
2022/03/30 05:48:47;;;;;;;;;;;21.10;35.00;;;;;;5057748;28;19908;-60
2022/03/30 05:51:12;;;;;;;;;;;21.10;35.00;;;;;;5050872;28;19935;-60
2022/03/30 05:53:38;;;;;;;;;;;21.10;35.10;;;;;;5040501;28;19915;-60
2022/03/30 05:56:04;;;;;;;;;;;21.20;35.10;;;;;;5054836;28;19924;-60
2022/03/30 05:58:29;;;;;;;;;;;21.20;35.10;;;;;;5056059;28;19909;-60
2022/03/30 06:00:55;;;;;;;;;;;21.20;35.20;;;;;;5054095;28;19921;-60
2022/03/30 06:03:21;;;;;;;;;;;21.20;35.20;;;;;;5023615;28;20051;-60
2022/03/30 06:05:46;;;;;;;;;;;21.20;35.20;;;;;;5054350;28;19913;-60
2022/03/30 06:08:12;;;;;;;;;;;21.20;35.10;;;;;;5037173;28;19920;-60
2022/03/30 06:10:37;;;;;;;;;;;21.10;35.10;;;;;;5033915;28;19912;-60
2022/03/30 06:13:03;;;;;;;;;;;21.10;35.20;;;;;;5062548;28;19916;-60
2022/03/30 06:15:28;;;;;;;;;;;21.10;35.20;;;;;;5074625;28;20287;-60
2022/03/30 06:17:54;;;;;;;;;;;21.10;35.30;;;;;;5058160;28;19924;-60
2022/03/30 06:20:21;;;;;;;;;;;21.10;35.40;;;;;;5045088;28;19921;-60
2022/03/30 06:22:46;;;;;;;;;;;21.10;35.60;;;;;;5031978;28;19928;-60
2022/03/30 06:25:12;;;;;;;;;;;21.00;35.60;;;;;;5032595;28;19939;-60
2022/03/30 06:27:38;;;;;;;;;;;21.00;35.50;;;;;;5032408;28;19917;-61
2022/03/30 06:30:04;;;;;;;;;;;21.00;35.60;;;;;;5067089;28;20258;-60
2022/03/30 06:32:30;;;;;;;;;;;21.00;35.60;;;;;;5022238;28;19913;-60
2022/03/30 06:34:55;;;;;;;;;;;21.00;35.70;;;;;;5068474;28;20007;-60
2022/03/30 06:37:21;;;;;;;;;;;21.00;35.80;;;;;;5089463;28;19916;-60
2022/03/30 06:39:46;;;;;;;;;;;21.00;35.90;;;;;;5039606;28;19912;-60
2022/03/30 06:42:11;;;;;;;;;;;21.00;35.90;;;;;;5055258;28;19920;-60
2022/03/30 06:44:37;;;;;;;;;;;21.00;36.00;;;;;;5074905;28;20364;-60
2022/03/30 06:47:03;;;;;;;;;;;21.00;36.00;;;;;;5021376;28;19913;-60
2022/03/30 06:49:28;;;;;;;;;;;21.00;36.10;;;;;;5037321;28;19909;-59
2022/03/30 06:51:54;;;;;;;;;;;21.00;36.10;;;;;;5074408;28;19908;-59
2022/03/30 06:54:19;;;;;;;;;;;21.10;36.10;;;;;;5073618;28;19908;-59
2022/03/30 06:56:46;;;;;;;;;;;21.50;36.30;;;;;;5040168;28;20015;-59
2022/03/30 06:59:13;;;;;;;;;;;22.00;35.00;;;;;;5056762;28;20425;-60
2022/03/30 07:01:38;;;;;;;;;;;22.50;34.20;;;;;;5039229;28;19923;-59
2022/03/30 07:04:04;;;;;;;;;;;22.80;33.80;;;;;;5056836;28;20296;-60
2022/03/30 07:06:29;;;;;;;;;;;23.00;33.90;;;;;;5078508;28;19909;-60
2022/03/30 07:11:39;;;;;;;;;;;23.40;34.20;;;;;;5053981;28;20359;-60
2022/03/30 07:14:04;;;;;;;;;;;23.60;33.90;;;;;;5056758;28;19913;-60
2022/03/30 07:16:30;;;;;;;;;;;23.80;33.60;;;;;;5042763;28;19913;-60
2022/03/30 07:18:56;;;;;;;;;;;24.00;33.50;;;;;;5053094;28;19917;-59
2022/03/30 07:21:21;;;;;;;;;;;24.10;33.40;;;;;;5074443;28;19925;-60
2022/03/30 07:23:46;;;;;;;;;;;24.30;33.40;;;;;;5055179;28;19966;-60
2022/03/30 07:26:12;;;;;;;;;;;24.30;33.20;;;;;;5038066;28;19935;-58
2022/03/30 07:28:38;;;;;;;;;;;24.40;33.20;;;;;;5051772;28;19920;-59
2022/03/30 07:31:03;;;;;;;;;;;24.50;33.10;;;;;;5037621;28;19915;-61
2022/03/30 07:33:29;;;;;;;;;;;24.60;33.00;;;;;;5032073;28;20296;-60
2022/03/30 07:35:55;;;;;;;;;;;24.70;33.10;;;;;;5053798;28;20003;-59
2022/03/30 07:38:20;;;;;;;;;;;24.70;32.90;;;;;;5053904;28;19912;-60
2022/03/30 07:40:46;;;;;;;;;;;24.70;32.80;;;;;;5062206;28;19912;-60
2022/03/30 07:43:12;;;;;;;;;;;24.80;32.80;;;;;;5092929;28;19912;-61
2022/03/30 07:45:38;;;;;;;;;;;24.90;32.80;;;;;;5070625;28;19908;-59
2022/03/30 07:48:04;;;;;;;;;;;24.90;32.70;;;;;;5039600;28;19912;-59
2022/03/30 07:50:30;;;;;;;;;;;24.90;32.60;;;;;;5039042;28;20400;-60
2022/03/30 07:52:55;;;;;;;;;;;25.00;32.60;;;;;;5036305;28;19920;-60
2022/03/30 07:55:21;;;;;;;;;;;25.00;32.60;;;;;;5056793;28;19908;-60
2022/03/30 07:57:46;;;;;;;;;;;25.10;32.60;;;;;;5083151;28;19999;-59
2022/03/30 08:00:12;;;;;;;;;;;25.10;32.50;;;;;;5093138;28;20329;-60
2022/03/30 08:02:38;;;;;;;;;;;25.10;32.50;;;;;;5059840;28;19987;-60
2022/03/30 08:05:04;;;;;;;;;;;25.10;32.40;;;;;;5039825;28;20336;-60
2022/03/30 08:07:34;;;;;;;;;;;25.20;32.40;;;;;;5057301;28;19909;-60
2022/03/30 08:10:00;;;;;;;;;;;25.10;32.30;;;;;;5036463;28;19959;-60
2022/03/30 08:12:25;;;;;;;;;;;25.20;32.40;;;;;;5036417;28;19913;-60
2022/03/30 08:14:51;;;;;;;;;;;25.20;32.40;;;;;;5056054;28;19913;-60
2022/03/30 08:17:17;;;;;;;;;;;25.10;32.40;;;;;;5054980;28;19950;-60
2022/03/30 08:19:42;;;;;;;;;;;25.10;32.50;;;;;;5045502;28;19913;-58
2022/03/30 08:22:27;;;;;;;;;;;25.10;32.40;;;;;;5056947;28;19923;-60
2022/03/30 08:24:55;;;;;;;;;;;25.20;32.50;;;;;;5054898;28;22237;-61
2022/03/30 08:27:22;;;;;;;;;;;25.20;32.50;;;;;;5025156;28;19987;-59
2022/03/30 08:29:47;;;;;;;;;;;25.20;32.60;;;;;;5037158;28;19916;-60
2022/03/30 08:32:13;;;;;;;;;;;25.20;32.50;;;;;;5018882;28;19913;-60
2022/03/30 08:34:38;;;;;;;;;;;25.20;32.50;;;;;;5035838;28;19909;-60
2022/03/30 08:37:04;;;;;;;;;;;25.30;32.70;;;;;;5021086;28;19916;-60
2022/03/30 08:39:29;;;;;;;;;;;25.20;32.80;;;;;;5031795;28;19917;-61
2022/03/30 08:41:55;;;;;;;;;;;25.20;32.90;;;;;;5014696;28;19921;-60
2022/03/30 08:44:21;;;;;;;;;;;25.30;32.70;;;;;;4999605;28;19909;-60
2022/03/30 08:46:47;;;;;;;;;;;25.40;32.60;;;;;;5041129;28;19916;-60
2022/03/30 08:49:13;;;;;;;;;;;25.50;33.00;;;;;;5038527;28;19916;-60
2022/03/30 08:51:40;;;;;;;;;;;25.50;32.20;;;;;;5038662;28;19958;-60
2022/03/30 08:54:06;;;;;;;;;;;25.60;32.30;;;;;;5039939;28;19982;-60
2022/03/30 08:56:31;;;;;;;;;;;25.60;32.20;;;;;;5016515;28;19909;-60
2022/03/30 08:59:00;;;;;;;;;;;25.60;32.20;;;;;;5047077;28;19909;-60
2022/03/30 09:01:25;;;;;;;;;;;25.60;32.20;;;;;;5045573;28;19920;-60
2022/03/30 09:03:57;;;;;;;;;;;25.60;32.30;;;;;;5049454;28;20403;-60
2022/03/30 09:06:35;;;;;;;;;;;25.60;32.20;;;;;;5033375;28;19917;-59
2022/03/30 09:09:00;;;;;;;;;;;25.70;32.20;;;;;;5054330;28;19922;-60
2022/03/30 09:11:30;;;;;;;;;;;25.80;32.20;;;;;;5042362;28;20319;-60
2022/03/30 09:14:03;;;;;;;;;;;25.80;32.20;;;;;;5053075;28;19945;-61
2022/03/30 09:16:41;;;;;;;;;;;25.70;32.10;;;;;;5036081;28;19909;-60
2022/03/30 09:19:08;;;;;;;;;;;25.80;32.10;;;;;;5037431;28;19913;-61
2022/03/30 09:21:40;;;;;;;;;;;25.80;32.00;;;;;;5037278;28;20014;-61
2022/03/30 09:24:06;;;;;;;;;;;25.80;32.00;;;;;;5020334;28;19928;-61
2022/03/30 09:26:32;;;;;;;;;;;25.70;32.00;;;;;;5021880;28;20284;-61
2022/03/30 09:28:57;;;;;;;;;;;25.70;32.20;;;;;;5034355;28;20348;-60
2022/03/30 09:31:24;;;;;;;;;;;25.60;32.30;;;;;;5019015;28;19952;-61
2022/03/30 09:33:49;;;;;;;;;;;25.60;32.30;;;;;;5039149;28;20327;-61
2022/03/30 09:36:28;;;;;;;;;;;25.60;32.40;;;;;;5033327;28;19942;-61
2022/03/30 09:38:54;;;;;;;;;;;25.60;32.30;;;;;;5035399;28;19913;-61
2022/03/30 09:41:20;;;;;;;;;;;25.60;32.30;;;;;;5035625;28;20396;-60
2022/03/30 09:43:45;;;;;;;;;;;25.60;32.40;;;;;;5037506;28;19913;-60
2022/03/30 09:46:11;;;;;;;;;;;25.60;32.50;;;;;;5054908;28;19912;-60
2022/03/30 09:48:44;;;;;;;;;;;25.60;32.40;;;;;;5038112;28;20367;-61
2022/03/30 09:51:09;;;;;;;;;;;25.60;32.40;;;;;;5019369;28;19920;-60
2022/03/30 09:53:35;;;;;;;;;;;25.50;32.50;;;;;;5043560;28;19917;-61
2022/03/30 09:56:01;;;;;;;;;;;25.50;32.70;;;;;;5052272;28;19920;-62
2022/03/30 09:58:28;;;;;;;;;;;25.40;32.70;;;;;;5050903;28;19912;-59
2022/03/30 10:01:05;;;;;;;;;;;25.40;32.60;;;;;;5031461;28;19915;-60
2022/03/30 10:03:41;;;;;;;;;;;25.40;32.70;;;;;;5040968;28;19919;-60
2022/03/30 10:06:09;;;;;;;;;;;25.40;32.80;;;;;;5037801;28;20000;-59
2022/03/30 10:08:34;;;;;;;;;;;25.40;32.80;;;;;;5037672;28;19909;-60
2022/03/30 10:10:59;;;;;;;;;;;25.40;32.90;;;;;;5037791;28;19909;-61
2022/03/30 10:13:25;;;;;;;;;;;25.40;32.90;;;;;;5036375;28;19970;-61
2022/03/30 10:15:52;;;;;;;;;;;25.40;32.80;;;;;;5043499;28;19913;-60
2022/03/30 10:18:19;;;;;;;;;;;25.50;32.80;;;;;;5036686;28;20007;-60
2022/03/30 10:20:44;;;;;;;;;;;25.50;32.70;;;;;;5029569;28;19921;-60
2022/03/30 10:23:19;;;;;;;;;;;25.50;32.60;;;;;;5057516;28;20359;-62
2022/03/30 10:26:03;;;;;;;;;;;25.60;32.50;;;;;;5023001;28;19913;-60
2022/03/30 10:28:43;;;;;;;;;;;25.60;32.40;;;;;;5047810;28;20482;-61
2022/03/30 10:31:08;;;;;;;;;;;25.60;32.30;;;;;;5037208;28;19909;-61
2022/03/30 10:33:36;;;;;;;;;;;25.70;32.40;;;;;;5037896;28;19974;-61
2022/03/30 10:36:20;;;;;;;;;;;25.70;32.40;;;;;;5021530;28;19912;-60
2022/03/30 10:39:05;;;;;;;;;;;25.70;32.40;;;;;;5035725;28;19921;-61
2022/03/30 10:41:53;;;;;;;;;;;25.80;32.40;;;;;;5053671;28;19948;-61
2022/03/30 10:44:40;;;;;;;;;;;25.80;32.40;;;;;;5053222;28;20003;-59
2022/03/30 10:47:10;;;;;;;;;;;25.70;32.40;;;;;;5021613;28;19937;-61
2022/03/30 10:49:38;;;;;;;;;;;25.70;32.40;;;;;;5035491;28;20292;-60
2022/03/30 10:52:22;;;;;;;;;;;25.60;32.40;;;;;;5037675;28;20097;-59
2022/03/30 10:54:50;;;;;;;;;;;25.70;32.40;;;;;;5040864;28;19913;-61
2022/03/30 10:57:34;;;;;;;;;;;25.70;32.50;;;;;;5039429;28;20383;-60
2022/03/30 11:00:06;;;;;;;;;;;25.60;32.50;;;;;;5035266;28;19996;-60
2022/03/30 11:02:41;;;;;;;;;;;25.60;32.50;;;;;;5024375;28;19917;-60
2022/03/30 11:05:10;;;;;;;;;;;25.60;32.50;;;;;;5049653;28;19917;-62
2022/03/30 11:07:36;;;;;;;;;;;25.60;32.50;;;;;;5054985;28;20289;-60
2022/03/30 11:10:21;;;;;;;;;;;25.60;32.50;;;;;;5035849;28;19913;-60
2022/03/30 11:12:56;;;;;;;;;;;25.70;32.50;;;;;;5054889;28;20277;-60
2022/03/30 11:15:22;;;;;;;;;;;25.70;32.50;;;;;;5033256;28;19938;-59
2022/03/30 11:17:47;;;;;;;;;;;25.70;32.40;;;;;;5052426;28;19912;-60
2022/03/30 11:20:14;;;;;;;;;;;25.70;32.40;;;;;;5057954;28;19959;-59
2022/03/30 11:22:44;;;;;;;;;;;25.70;32.40;;;;;;5070305;28;19967;-61
2022/03/30 11:25:13;;;;;;;;;;;25.70;32.40;;;;;;5054663;28;19913;-61
2022/03/30 11:27:39;;;;;;;;;;;25.80;32.50;;;;;;5054833;28;19991;-61
2022/03/30 11:30:14;;;;;;;;;;;25.80;32.50;;;;;;5056280;28;20687;-60
2022/03/30 11:32:41;;;;;;;;;;;25.80;32.50;;;;;;5054534;28;20380;-59
2022/03/30 11:35:10;;;;;;;;;;;25.90;32.50;;;;;;5057984;28;19924;-60
2022/03/30 11:37:37;;;;;;;;;;;25.80;32.50;;;;;;5055845;28;19923;-60
2022/03/30 11:40:18;;;;;;;;;;;25.80;32.50;;;;;;5050446;28;19916;-62
2022/03/30 11:42:44;;;;;;;;;;;25.80;32.50;;;;;;5055168;28;20398;-61
2022/03/30 11:45:14;;;;;;;;;;;25.80;32.50;;;;;;5036605;28;20008;-61
2022/03/30 11:47:40;;;;;;;;;;;25.80;32.50;;;;;;5037616;28;19913;-61
2022/03/30 11:50:06;;;;;;;;;;;25.80;32.50;;;;;;5047458;28;19919;-61
2022/03/30 11:52:32;;;;;;;;;;;25.80;32.50;;;;;;5057072;28;19908;-61
2022/03/30 11:54:57;;;;;;;;;;;25.80;32.50;;;;;;5055826;28;19908;-62
2022/03/30 11:57:22;;;;;;;;;;;25.80;32.60;;;;;;5075662;28;19926;-62
2022/03/30 11:59:58;;;;;;;;;;;25.70;32.80;;;;;;5054329;28;20012;-60
2022/03/30 12:02:24;;;;;;;;;;;25.80;32.90;;;;;;5054481;28;19932;-61
2022/03/30 12:04:49;;;;;;;;;;;25.80;32.90;;;;;;5069510;28;19908;-61
2022/03/30 12:07:15;;;;;;;;;;;25.80;32.80;;;;;;5073296;28;20283;-61
2022/03/30 12:09:44;;;;;;;;;;;25.80;32.70;;;;;;5073951;28;19913;-61
2022/03/30 12:12:11;;;;;;;;;;;25.90;32.50;;;;;;5094145;28;19966;-60
2022/03/30 12:14:36;;;;;;;;;;;25.90;32.50;;;;;;5064733;28;19920;-59
2022/03/30 12:17:04;;;;;;;;;;;25.90;32.40;;;;;;5040184;28;19912;-60
2022/03/30 12:19:29;;;;;;;;;;;25.90;32.30;;;;;;5074106;28;19915;-61
2022/03/30 12:22:02;;;;;;;;;;;25.90;32.40;;;;;;5077345;28;19924;-60
2022/03/30 12:24:31;;;;;;;;;;;25.90;32.40;;;;;;5066085;28;19935;-59
2022/03/30 12:26:58;;;;;;;;;;;26.00;32.50;;;;;;5056744;28;20363;-60
2022/03/30 12:29:24;;;;;;;;;;;25.90;32.50;;;;;;5072151;28;19908;-60
2022/03/30 12:31:50;;;;;;;;;;;25.90;32.50;;;;;;5062233;28;20028;-60
2022/03/30 12:34:17;;;;;;;;;;;25.90;32.50;;;;;;5056517;28;20502;-60
2022/03/30 12:37:00;;;;;;;;;;;25.90;32.50;;;;;;5040157;28;20445;-61
2022/03/30 12:39:33;;;;;;;;;;;25.90;32.50;;;;;;5053897;28;20291;-60
2022/03/30 12:41:58;;;;;;;;;;;25.80;32.70;;;;;;5073337;28;20000;-60
2022/03/30 12:44:26;;;;;;;;;;;25.80;32.70;;;;;;5073926;28;19947;-60
2022/03/30 12:46:52;;;;;;;;;;;25.80;32.80;;;;;;5063110;28;20004;-61
2022/03/30 12:49:18;;;;;;;;;;;25.80;32.80;;;;;;5046861;28;20299;-60
2022/03/30 12:51:43;;;;;;;;;;;25.90;32.80;;;;;;5071229;28;19922;-60
2022/03/30 12:54:21;;;;;;;;;;;25.80;32.70;;;;;;5095908;28;20363;-60
2022/03/30 12:56:46;;;;;;;;;;;25.90;32.70;;;;;;5067265;28;19916;-60
2022/03/30 12:59:16;;;;;;;;;;;25.80;32.70;;;;;;5095706;28;19965;-60
2022/03/30 13:01:49;;;;;;;;;;;25.90;32.60;;;;;;5045702;28;19999;-60
2022/03/30 13:04:22;;;;;;;;;;;26.00;32.60;;;;;;5064005;28;19961;-61
2022/03/30 13:07:07;;;;;;;;;;;26.00;32.60;;;;;;5048767;28;19914;-61
2022/03/30 13:09:33;;;;;;;;;;;26.00;32.60;;;;;;5079257;28;19924;-60
2022/03/30 13:11:58;;;;;;;;;;;26.00;32.60;;;;;;5078873;28;20447;-61
2022/03/30 13:14:24;;;;;;;;;;;26.10;32.60;;;;;;5088558;28;19916;-61
2022/03/30 13:17:02;;;;;;;;;;;26.10;32.60;;;;;;5060154;28;20332;-60
2022/03/30 13:19:28;;;;;;;;;;;26.00;32.60;;;;;;5061492;28;19971;-61
2022/03/30 13:21:56;;;;;;;;;;;26.10;32.50;;;;;;5078159;28;19987;-60
2022/03/30 13:24:22;;;;;;;;;;;26.00;32.50;;;;;;5047256;28;19956;-59
2022/03/30 13:27:07;;;;;;;;;;;26.10;32.60;;;;;;5061570;28;20000;-60
2022/03/30 13:29:34;;;;;;;;;;;26.00;32.60;;;;;;5043201;28;20031;-60
2022/03/30 13:32:00;;;;;;;;;;;26.00;32.60;;;;;;5062996;28;19913;-61
2022/03/30 13:34:26;;;;;;;;;;;26.00;32.60;;;;;;5051143;28;19919;-60
2022/03/30 13:36:52;;;;;;;;;;;26.00;32.60;;;;;;5058805;28;20046;-60
2022/03/30 13:39:18;;;;;;;;;;;26.00;32.60;;;;;;5047770;28;19960;-60
2022/03/30 13:41:44;;;;;;;;;;;25.90;32.60;;;;;;5058348;28;19935;-60
2022/03/30 13:44:10;;;;;;;;;;;25.90;32.70;;;;;;5064421;28;19908;-59
2022/03/30 13:46:36;;;;;;;;;;;25.90;32.80;;;;;;5061580;28;19912;-61
2022/03/30 13:49:02;;;;;;;;;;;25.80;32.80;;;;;;5068435;28;19938;-62
2022/03/30 13:51:27;;;;;;;;;;;25.90;32.80;;;;;;5054479;28;19908;-62
2022/03/30 13:53:53;;;;;;;;;;;25.80;32.80;;;;;;5073540;28;19920;-59
2022/03/30 13:56:18;;;;;;;;;;;25.80;32.90;;;;;;5059676;28;19945;-60
2022/03/30 13:58:44;;;;;;;;;;;25.80;33.00;;;;;;5047284;28;19921;-60
2022/03/30 14:01:10;;;;;;;;;;;25.70;33.00;;;;;;5042542;28;19924;-62
2022/03/30 14:03:36;;;;;;;;;;;25.70;33.10;;;;;;5076133;28;19912;-60
2022/03/30 14:06:02;;;;;;;;;;;25.80;33.20;;;;;;5079965;28;19950;-60
2022/03/30 14:08:27;;;;;;;;;;;25.80;33.20;;;;;;5077813;28;19916;-60
2022/03/30 14:10:53;;;;;;;;;;;25.80;33.20;;;;;;5078625;28;20320;-60
2022/03/30 14:13:19;;;;;;;;;;;25.80;33.30;;;;;;5068513;28;19987;-61
2022/03/30 14:15:45;;;;;;;;;;;25.80;33.30;;;;;;5075200;28;20601;-60
2022/03/30 14:18:10;;;;;;;;;;;25.80;33.20;;;;;;5068820;28;19963;-60
2022/03/30 14:20:36;;;;;;;;;;;25.90;33.30;;;;;;5096462;28;19923;-61